sensor_id;sensor_type;location;lat;lon;timestamp;P1;durP1;ratioP1;P2;durP2;ratioP2
72924;SDS011;61070;50.794;7.054;2023-04-03T00:00:49;4.22;;;2.80;;
72924;SDS011;61070;50.794;7.054;2023-04-03T00:03:14;12.35;;;2.63;;
72924;SDS011;61070;50.794;7.054;2023-04-03T00:05:40;8.20;;;2.38;;
72924;SDS011;61070;50.794;7.054;2023-04-03T00:08:05;7.45;;;2.70;;
72924;SDS011;61070;50.794;7.054;2023-04-03T00:10:32;7.38;;;3.35;;
72924;SDS011;61070;50.794;7.054;2023-04-03T00:12:58;5.68;;;2.58;;
72924;SDS011;61070;50.794;7.054;2023-04-03T00:15:23;5.38;;;2.67;;
72924;SDS011;61070;50.794;7.054;2023-04-03T00:17:49;6.43;;;2.80;;
72924;SDS011;61070;50.794;7.054;2023-04-03T00:20:14;6.45;;;2.50;;
72924;SDS011;61070;50.794;7.054;2023-04-03T00:22:40;3.85;;;2.38;;
72924;SDS011;61070;50.794;7.054;2023-04-03T00:25:05;5.75;;;2.70;;
72924;SDS011;61070;50.794;7.054;2023-04-03T00:27:31;7.70;;;2.75;;
72924;SDS011;61070;50.794;7.054;2023-04-03T00:29:56;6.15;;;3.08;;
72924;SDS011;61070;50.794;7.054;2023-04-03T00:32:22;5.63;;;3.05;;
72924;SDS011;61070;50.794;7.054;2023-04-03T00:34:47;7.68;;;2.40;;
72924;SDS011;61070;50.794;7.054;2023-04-03T00:37:12;8.85;;;2.80;;
72924;SDS011;61070;50.794;7.054;2023-04-03T00:39:38;7.72;;;2.58;;
72924;SDS011;61070;50.794;7.054;2023-04-03T00:42:04;5.97;;;2.60;;
72924;SDS011;61070;50.794;7.054;2023-04-03T00:46:57;6.57;;;2.38;;
72924;SDS011;61070;50.794;7.054;2023-04-03T00:49:23;5.57;;;2.22;;
72924;SDS011;61070;50.794;7.054;2023-04-03T00:51:48;7.88;;;2.28;;
72924;SDS011;61070;50.794;7.054;2023-04-03T00:54:13;6.93;;;2.42;;
72924;SDS011;61070;50.794;7.054;2023-04-03T00:56:39;4.75;;;1.83;;
72924;SDS011;61070;50.794;7.054;2023-04-03T00:59:12;5.60;;;2.10;;
72924;SDS011;61070;50.794;7.054;2023-04-03T01:01:48;4.63;;;2.15;;
72924;SDS011;61070;50.794;7.054;2023-04-03T01:07:04;3.83;;;2.33;;
72924;SDS011;61070;50.794;7.054;2023-04-03T01:09:48;3.75;;;1.98;;
72924;SDS011;61070;50.794;7.054;2023-04-03T01:12:18;6.82;;;2.55;;
72924;SDS011;61070;50.794;7.054;2023-04-03T01:14:46;6.20;;;2.60;;
72924;SDS011;61070;50.794;7.054;2023-04-03T01:17:27;5.18;;;2.10;;
72924;SDS011;61070;50.794;7.054;2023-04-03T01:23:20;7.20;;;2.63;;
72924;SDS011;61070;50.794;7.054;2023-04-03T01:25:35;4.65;;;2.28;;
72924;SDS011;61070;50.794;7.054;2023-04-03T01:28:22;4.15;;;2.05;;
72924;SDS011;61070;50.794;7.054;2023-04-03T01:30:58;4.07;;;2.15;;
72924;SDS011;61070;50.794;7.054;2023-04-03T01:33:25;5.68;;;1.77;;
72924;SDS011;61070;50.794;7.054;2023-04-03T01:35:51;4.35;;;2.17;;
72924;SDS011;61070;50.794;7.054;2023-04-03T01:38:16;3.53;;;2.28;;
72924;SDS011;61070;50.794;7.054;2023-04-03T01:40:41;5.05;;;2.47;;
72924;SDS011;61070;50.794;7.054;2023-04-03T01:43:07;5.65;;;2.10;;
72924;SDS011;61070;50.794;7.054;2023-04-03T01:45:32;6.05;;;2.15;;
72924;SDS011;61070;50.794;7.054;2023-04-03T01:47:58;4.30;;;2.65;;
72924;SDS011;61070;50.794;7.054;2023-04-03T01:50:23;5.75;;;2.40;;
72924;SDS011;61070;50.794;7.054;2023-04-03T01:52:48;3.83;;;1.85;;
72924;SDS011;61070;50.794;7.054;2023-04-03T01:55:14;3.38;;;2.10;;
72924;SDS011;61070;50.794;7.054;2023-04-03T01:57:40;7.05;;;2.33;;
72924;SDS011;61070;50.794;7.054;2023-04-03T02:00:05;4.22;;;2.45;;
72924;SDS011;61070;50.794;7.054;2023-04-03T02:02:31;3.95;;;2.40;;
72924;SDS011;61070;50.794;7.054;2023-04-03T02:04:56;5.63;;;2.63;;
72924;SDS011;61070;50.794;7.054;2023-04-03T02:07:21;5.00;;;2.47;;
72924;SDS011;61070;50.794;7.054;2023-04-03T02:09:47;4.55;;;2.33;;
72924;SDS011;61070;50.794;7.054;2023-04-03T02:12:12;3.35;;;1.63;;
72924;SDS011;61070;50.794;7.054;2023-04-03T02:14:37;2.95;;;2.22;;
72924;SDS011;61070;50.794;7.054;2023-04-03T02:17:03;8.00;;;2.33;;
72924;SDS011;61070;50.794;7.054;2023-04-03T02:19:30;3.28;;;2.20;;
72924;SDS011;61070;50.794;7.054;2023-04-03T02:21:56;4.95;;;2.35;;
72924;SDS011;61070;50.794;7.054;2023-04-03T02:24:21;6.50;;;2.13;;
72924;SDS011;61070;50.794;7.054;2023-04-03T02:26:46;9.30;;;2.00;;
72924;SDS011;61070;50.794;7.054;2023-04-03T02:29:12;7.95;;;2.20;;
72924;SDS011;61070;50.794;7.054;2023-04-03T02:31:37;7.32;;;2.17;;
72924;SDS011;61070;50.794;7.054;2023-04-03T02:34:02;8.98;;;1.83;;
72924;SDS011;61070;50.794;7.054;2023-04-03T02:36:28;5.57;;;1.98;;
72924;SDS011;61070;50.794;7.054;2023-04-03T02:38:53;3.78;;;1.85;;
72924;SDS011;61070;50.794;7.054;2023-04-03T02:41:18;4.63;;;2.03;;
72924;SDS011;61070;50.794;7.054;2023-04-03T02:43:44;9.20;;;1.88;;
72924;SDS011;61070;50.794;7.054;2023-04-03T02:46:09;2.85;;;2.25;;
72924;SDS011;61070;50.794;7.054;2023-04-03T02:48:34;3.75;;;2.10;;
72924;SDS011;61070;50.794;7.054;2023-04-03T02:51:01;4.50;;;2.22;;
72924;SDS011;61070;50.794;7.054;2023-04-03T02:53:26;4.15;;;2.38;;
72924;SDS011;61070;50.794;7.054;2023-04-03T02:55:52;6.95;;;2.53;;
72924;SDS011;61070;50.794;7.054;2023-04-03T02:58:17;4.38;;;2.20;;
72924;SDS011;61070;50.794;7.054;2023-04-03T03:00:42;4.25;;;2.17;;
72924;SDS011;61070;50.794;7.054;2023-04-03T03:03:08;5.32;;;2.45;;
72924;SDS011;61070;50.794;7.054;2023-04-03T03:05:33;6.68;;;2.25;;
72924;SDS011;61070;50.794;7.054;2023-04-03T03:07:58;5.13;;;2.42;;
72924;SDS011;61070;50.794;7.054;2023-04-03T03:10:24;3.58;;;2.08;;
72924;SDS011;61070;50.794;7.054;2023-04-03T03:12:50;6.43;;;2.42;;
72924;SDS011;61070;50.794;7.054;2023-04-03T03:15:15;4.35;;;2.60;;
72924;SDS011;61070;50.794;7.054;2023-04-03T03:17:42;5.00;;;2.30;;
72924;SDS011;61070;50.794;7.054;2023-04-03T03:20:07;6.45;;;2.83;;
72924;SDS011;61070;50.794;7.054;2023-04-03T03:22:33;6.15;;;2.30;;
72924;SDS011;61070;50.794;7.054;2023-04-03T03:24:59;7.68;;;2.28;;
72924;SDS011;61070;50.794;7.054;2023-04-03T03:27:25;8.50;;;2.75;;
72924;SDS011;61070;50.794;7.054;2023-04-03T03:29:51;5.60;;;2.00;;
72924;SDS011;61070;50.794;7.054;2023-04-03T03:32:16;4.75;;;2.80;;
72924;SDS011;61070;50.794;7.054;2023-04-03T03:34:41;6.63;;;2.22;;
72924;SDS011;61070;50.794;7.054;2023-04-03T03:37:06;5.13;;;2.88;;
72924;SDS011;61070;50.794;7.054;2023-04-03T03:39:32;4.28;;;2.10;;
72924;SDS011;61070;50.794;7.054;2023-04-03T03:41:57;5.05;;;2.15;;
72924;SDS011;61070;50.794;7.054;2023-04-03T03:44:22;5.40;;;2.00;;
72924;SDS011;61070;50.794;7.054;2023-04-03T03:46:47;5.93;;;2.45;;
72924;SDS011;61070;50.794;7.054;2023-04-03T03:49:13;3.92;;;2.17;;
72924;SDS011;61070;50.794;7.054;2023-04-03T03:51:39;4.82;;;2.22;;
72924;SDS011;61070;50.794;7.054;2023-04-03T03:54:04;3.13;;;1.77;;
72924;SDS011;61070;50.794;7.054;2023-04-03T03:56:30;7.60;;;2.42;;
72924;SDS011;61070;50.794;7.054;2023-04-03T03:58:55;4.22;;;2.50;;
72924;SDS011;61070;50.794;7.054;2023-04-03T04:01:21;4.85;;;2.38;;
72924;SDS011;61070;50.794;7.054;2023-04-03T04:03:50;8.10;;;2.42;;
72924;SDS011;61070;50.794;7.054;2023-04-03T04:06:16;4.75;;;2.35;;
72924;SDS011;61070;50.794;7.054;2023-04-03T04:08:41;7.55;;;2.83;;
72924;SDS011;61070;50.794;7.054;2023-04-03T04:11:07;7.30;;;2.40;;
72924;SDS011;61070;50.794;7.054;2023-04-03T04:13:33;9.73;;;2.72;;
72924;SDS011;61070;50.794;7.054;2023-04-03T04:15:58;11.40;;;2.70;;
72924;SDS011;61070;50.794;7.054;2023-04-03T04:18:24;6.43;;;2.75;;
72924;SDS011;61070;50.794;7.054;2023-04-03T04:20:49;5.65;;;3.08;;
72924;SDS011;61070;50.794;7.054;2023-04-03T04:23:15;5.35;;;2.75;;
72924;SDS011;61070;50.794;7.054;2023-04-03T04:25:44;4.03;;;2.17;;
72924;SDS011;61070;50.794;7.054;2023-04-03T04:28:12;14.13;;;2.60;;
72924;SDS011;61070;50.794;7.054;2023-04-03T04:30:38;6.35;;;2.63;;
72924;SDS011;61070;50.794;7.054;2023-04-03T04:33:03;6.88;;;2.83;;
72924;SDS011;61070;50.794;7.054;2023-04-03T04:35:28;3.03;;;2.30;;
72924;SDS011;61070;50.794;7.054;2023-04-03T04:37:53;5.47;;;3.13;;
72924;SDS011;61070;50.794;7.054;2023-04-03T04:40:19;6.55;;;2.65;;
72924;SDS011;61070;50.794;7.054;2023-04-03T04:42:44;4.82;;;2.35;;
72924;SDS011;61070;50.794;7.054;2023-04-03T04:45:09;3.85;;;2.45;;
72924;SDS011;61070;50.794;7.054;2023-04-03T04:47:35;4.30;;;2.15;;
72924;SDS011;61070;50.794;7.054;2023-04-03T04:50:00;5.30;;;2.60;;
72924;SDS011;61070;50.794;7.054;2023-04-03T04:52:25;6.80;;;2.78;;
72924;SDS011;61070;50.794;7.054;2023-04-03T04:54:51;4.97;;;2.40;;
72924;SDS011;61070;50.794;7.054;2023-04-03T04:57:16;9.70;;;2.83;;
72924;SDS011;61070;50.794;7.054;2023-04-03T04:59:42;6.72;;;3.08;;
72924;SDS011;61070;50.794;7.054;2023-04-03T05:02:07;4.55;;;2.53;;
72924;SDS011;61070;50.794;7.054;2023-04-03T05:04:32;7.45;;;2.65;;
72924;SDS011;61070;50.794;7.054;2023-04-03T05:06:58;3.72;;;2.30;;
72924;SDS011;61070;50.794;7.054;2023-04-03T05:09:24;4.30;;;1.83;;
72924;SDS011;61070;50.794;7.054;2023-04-03T05:11:49;5.07;;;2.13;;
72924;SDS011;61070;50.794;7.054;2023-04-03T05:14:15;7.32;;;2.08;;
72924;SDS011;61070;50.794;7.054;2023-04-03T05:16:41;7.60;;;2.47;;
72924;SDS011;61070;50.794;7.054;2023-04-03T05:19:08;4.40;;;2.28;;
72924;SDS011;61070;50.794;7.054;2023-04-03T05:21:33;4.75;;;2.17;;
72924;SDS011;61070;50.794;7.054;2023-04-03T05:23:59;6.07;;;2.40;;
72924;SDS011;61070;50.794;7.054;2023-04-03T05:26:27;5.22;;;2.05;;
72924;SDS011;61070;50.794;7.054;2023-04-03T05:28:56;7.57;;;2.28;;
72924;SDS011;61070;50.794;7.054;2023-04-03T05:31:21;7.90;;;2.70;;
72924;SDS011;61070;50.794;7.054;2023-04-03T05:33:48;4.93;;;1.77;;
72924;SDS011;61070;50.794;7.054;2023-04-03T05:36:13;5.85;;;2.60;;
72924;SDS011;61070;50.794;7.054;2023-04-03T05:38:39;7.55;;;1.88;;
72924;SDS011;61070;50.794;7.054;2023-04-03T05:41:04;4.20;;;2.15;;
72924;SDS011;61070;50.794;7.054;2023-04-03T05:43:30;8.63;;;1.92;;
72924;SDS011;61070;50.794;7.054;2023-04-03T05:45:56;3.42;;;1.98;;
72924;SDS011;61070;50.794;7.054;2023-04-03T05:48:22;6.47;;;1.90;;
72924;SDS011;61070;50.794;7.054;2023-04-03T05:50:47;11.05;;;1.98;;
72924;SDS011;61070;50.794;7.054;2023-04-03T05:53:15;6.63;;;2.95;;
72924;SDS011;61070;50.794;7.054;2023-04-03T05:55:51;7.55;;;2.42;;
72924;SDS011;61070;50.794;7.054;2023-04-03T05:58:17;5.43;;;2.40;;
72924;SDS011;61070;50.794;7.054;2023-04-03T06:00:42;6.68;;;1.67;;
72924;SDS011;61070;50.794;7.054;2023-04-03T06:03:07;4.93;;;2.03;;
72924;SDS011;61070;50.794;7.054;2023-04-03T06:05:33;3.25;;;2.33;;
72924;SDS011;61070;50.794;7.054;2023-04-03T06:07:58;4.53;;;1.92;;
72924;SDS011;61070;50.794;7.054;2023-04-03T06:10:23;8.70;;;2.08;;
72924;SDS011;61070;50.794;7.054;2023-04-03T06:12:49;5.28;;;2.25;;
72924;SDS011;61070;50.794;7.054;2023-04-03T06:15:15;5.13;;;1.70;;
72924;SDS011;61070;50.794;7.054;2023-04-03T06:17:41;5.82;;;1.90;;
72924;SDS011;61070;50.794;7.054;2023-04-03T06:20:07;6.00;;;1.60;;
72924;SDS011;61070;50.794;7.054;2023-04-03T06:22:32;5.15;;;1.55;;
72924;SDS011;61070;50.794;7.054;2023-04-03T06:24:58;3.30;;;1.80;;
72924;SDS011;61070;50.794;7.054;2023-04-03T06:27:23;12.63;;;1.80;;
72924;SDS011;61070;50.794;7.054;2023-04-03T06:29:48;10.85;;;2.00;;
72924;SDS011;61070;50.794;7.054;2023-04-03T06:32:15;7.35;;;1.73;;
72924;SDS011;61070;50.794;7.054;2023-04-03T06:34:41;8.00;;;1.77;;
72924;SDS011;61070;50.794;7.054;2023-04-03T06:37:10;4.80;;;1.58;;
72924;SDS011;61070;50.794;7.054;2023-04-03T06:39:40;7.63;;;2.08;;
72924;SDS011;61070;50.794;7.054;2023-04-03T06:42:05;6.13;;;1.83;;
72924;SDS011;61070;50.794;7.054;2023-04-03T06:44:31;8.63;;;2.13;;
72924;SDS011;61070;50.794;7.054;2023-04-03T06:46:58;3.10;;;1.48;;
72924;SDS011;61070;50.794;7.054;2023-04-03T06:49:24;4.78;;;1.30;;
72924;SDS011;61070;50.794;7.054;2023-04-03T06:51:50;9.27;;;1.85;;
72924;SDS011;61070;50.794;7.054;2023-04-03T06:54:15;4.10;;;2.03;;
72924;SDS011;61070;50.794;7.054;2023-04-03T06:56:41;6.28;;;1.60;;
72924;SDS011;61070;50.794;7.054;2023-04-03T06:59:06;3.33;;;1.88;;
72924;SDS011;61070;50.794;7.054;2023-04-03T07:01:31;6.47;;;1.70;;
72924;SDS011;61070;50.794;7.054;2023-04-03T07:03:57;6.07;;;1.77;;
72924;SDS011;61070;50.794;7.054;2023-04-03T07:06:22;4.70;;;2.00;;
72924;SDS011;61070;50.794;7.054;2023-04-03T07:08:48;4.22;;;1.58;;
72924;SDS011;61070;50.794;7.054;2023-04-03T07:11:14;7.18;;;1.70;;
72924;SDS011;61070;50.794;7.054;2023-04-03T07:13:39;4.65;;;1.55;;
72924;SDS011;61070;50.794;7.054;2023-04-03T07:16:05;8.50;;;1.85;;
72924;SDS011;61070;50.794;7.054;2023-04-03T07:18:31;7.43;;;2.00;;
72924;SDS011;61070;50.794;7.054;2023-04-03T07:20:57;8.50;;;1.83;;
72924;SDS011;61070;50.794;7.054;2023-04-03T07:23:23;6.97;;;1.80;;
72924;SDS011;61070;50.794;7.054;2023-04-03T07:25:49;8.20;;;1.80;;
72924;SDS011;61070;50.794;7.054;2023-04-03T07:28:16;2.33;;;1.15;;
72924;SDS011;61070;50.794;7.054;2023-04-03T07:30:43;8.93;;;2.05;;
72924;SDS011;61070;50.794;7.054;2023-04-03T07:33:21;9.00;;;2.13;;
72924;SDS011;61070;50.794;7.054;2023-04-03T07:35:48;7.60;;;1.63;;
72924;SDS011;61070;50.794;7.054;2023-04-03T07:38:13;7.85;;;1.83;;
72924;SDS011;61070;50.794;7.054;2023-04-03T07:40:38;7.53;;;2.10;;
72924;SDS011;61070;50.794;7.054;2023-04-03T07:43:04;4.32;;;2.30;;
72924;SDS011;61070;50.794;7.054;2023-04-03T07:45:30;5.82;;;1.50;;
72924;SDS011;61070;50.794;7.054;2023-04-03T07:47:56;7.25;;;1.88;;
72924;SDS011;61070;50.794;7.054;2023-04-03T07:50:22;7.20;;;1.80;;
72924;SDS011;61070;50.794;7.054;2023-04-03T07:52:47;4.78;;;1.92;;
72924;SDS011;61070;50.794;7.054;2023-04-03T07:55:13;10.40;;;2.55;;
72924;SDS011;61070;50.794;7.054;2023-04-03T07:57:38;5.40;;;1.55;;
72924;SDS011;61070;50.794;7.054;2023-04-03T08:00:05;13.43;;;2.28;;
72924;SDS011;61070;50.794;7.054;2023-04-03T08:02:31;6.28;;;2.00;;
72924;SDS011;61070;50.794;7.054;2023-04-03T08:04:57;6.75;;;2.00;;
72924;SDS011;61070;50.794;7.054;2023-04-03T08:07:23;4.13;;;1.75;;
72924;SDS011;61070;50.794;7.054;2023-04-03T08:09:48;12.27;;;1.98;;
72924;SDS011;61070;50.794;7.054;2023-04-03T08:12:14;4.32;;;1.90;;
72924;SDS011;61070;50.794;7.054;2023-04-03T08:14:39;6.28;;;1.83;;
72924;SDS011;61070;50.794;7.054;2023-04-03T08:17:05;8.48;;;2.50;;
72924;SDS011;61070;50.794;7.054;2023-04-03T08:19:34;5.47;;;1.88;;
72924;SDS011;61070;50.794;7.054;2023-04-03T08:22:00;6.40;;;1.65;;
72924;SDS011;61070;50.794;7.054;2023-04-03T08:24:27;4.70;;;1.60;;
72924;SDS011;61070;50.794;7.054;2023-04-03T08:26:53;6.15;;;1.95;;
72924;SDS011;61070;50.794;7.054;2023-04-03T08:29:18;9.57;;;2.05;;
72924;SDS011;61070;50.794;7.054;2023-04-03T08:31:44;12.85;;;1.90;;
72924;SDS011;61070;50.794;7.054;2023-04-03T08:34:10;5.38;;;1.42;;
72924;SDS011;61070;50.794;7.054;2023-04-03T08:36:36;9.88;;;2.08;;
72924;SDS011;61070;50.794;7.054;2023-04-03T08:39:02;6.63;;;1.95;;
72924;SDS011;61070;50.794;7.054;2023-04-03T08:41:35;5.57;;;1.67;;
72924;SDS011;61070;50.794;7.054;2023-04-03T08:49:40;5.70;;;1.75;;
72924;SDS011;61070;50.794;7.054;2023-04-03T08:52:21;3.25;;;1.55;;
72924;SDS011;61070;50.794;7.054;2023-04-03T08:54:57;4.10;;;1.48;;
72924;SDS011;61070;50.794;7.054;2023-04-03T08:57:36;9.00;;;1.90;;
72924;SDS011;61070;50.794;7.054;2023-04-03T09:00:06;6.47;;;1.80;;
72924;SDS011;61070;50.794;7.054;2023-04-03T09:02:41;3.80;;;1.90;;
72924;SDS011;61070;50.794;7.054;2023-04-03T09:05:15;8.65;;;1.95;;
72924;SDS011;61070;50.794;7.054;2023-04-03T09:07:44;5.57;;;1.90;;
72924;SDS011;61070;50.794;7.054;2023-04-03T09:10:13;3.65;;;1.23;;
72924;SDS011;61070;50.794;7.054;2023-04-03T09:12:49;6.10;;;1.95;;
72924;SDS011;61070;50.794;7.054;2023-04-03T09:15:21;7.90;;;1.60;;
72924;SDS011;61070;50.794;7.054;2023-04-03T09:22:56;4.22;;;1.05;;
72924;SDS011;61070;50.794;7.054;2023-04-03T09:27:52;8.32;;;1.90;;
72924;SDS011;61070;50.794;7.054;2023-04-03T09:30:19;6.80;;;1.67;;
72924;SDS011;61070;50.794;7.054;2023-04-03T09:32:48;5.53;;;1.88;;
72924;SDS011;61070;50.794;7.054;2023-04-03T09:35:16;4.97;;;1.80;;
72924;SDS011;61070;50.794;7.054;2023-04-03T09:37:45;11.20;;;1.90;;
72924;SDS011;61070;50.794;7.054;2023-04-03T09:42:50;4.75;;;1.35;;
72924;SDS011;61070;50.794;7.054;2023-04-03T09:45:23;3.83;;;1.17;;
72924;SDS011;61070;50.794;7.054;2023-04-03T09:50:36;5.45;;;1.35;;
72924;SDS011;61070;50.794;7.054;2023-04-03T09:53:06;6.07;;;1.75;;
72924;SDS011;61070;50.794;7.054;2023-04-03T09:55:32;4.00;;;1.50;;
72924;SDS011;61070;50.794;7.054;2023-04-03T09:58:11;3.60;;;1.45;;
72924;SDS011;61070;50.794;7.054;2023-04-03T10:00:56;8.68;;;1.55;;
72924;SDS011;61070;50.794;7.054;2023-04-03T10:03:25;5.40;;;1.20;;
72924;SDS011;61070;50.794;7.054;2023-04-03T10:05:54;4.60;;;1.45;;
72924;SDS011;61070;50.794;7.054;2023-04-03T10:11:06;3.58;;;1.15;;
72924;SDS011;61070;50.794;7.054;2023-04-03T10:13:31;2.45;;;1.02;;
72924;SDS011;61070;50.794;7.054;2023-04-03T10:16:04;1.48;;;0.82;;
72924;SDS011;61070;50.794;7.054;2023-04-03T10:18:41;4.72;;;1.15;;
72924;SDS011;61070;50.794;7.054;2023-04-03T10:27:10;4.10;;;1.33;;
72924;SDS011;61070;50.794;7.054;2023-04-03T10:34:47;3.78;;;1.00;;
72924;SDS011;61070;50.794;7.054;2023-04-03T10:42:43;4.82;;;1.08;;
72924;SDS011;61070;50.794;7.054;2023-04-03T10:53:39;2.50;;;1.10;;
72924;SDS011;61070;50.794;7.054;2023-04-03T10:59:05;2.25;;;0.95;;
72924;SDS011;61070;50.794;7.054;2023-04-03T11:01:38;4.50;;;1.30;;
72924;SDS011;61070;50.794;7.054;2023-04-03T11:04:07;5.05;;;1.13;;
72924;SDS011;61070;50.794;7.054;2023-04-03T11:06:52;3.83;;;1.00;;
72924;SDS011;61070;50.794;7.054;2023-04-03T11:09:34;6.97;;;1.10;;
72924;SDS011;61070;50.794;7.054;2023-04-03T11:12:24;1.10;;;0.65;;
72924;SDS011;61070;50.794;7.054;2023-04-03T11:14:52;2.00;;;1.00;;
72924;SDS011;61070;50.794;7.054;2023-04-03T11:17:26;4.88;;;0.80;;
72924;SDS011;61070;50.794;7.054;2023-04-03T11:23:01;3.60;;;1.02;;
72924;SDS011;61070;50.794;7.054;2023-04-03T11:25:29;3.97;;;1.30;;
72924;SDS011;61070;50.794;7.054;2023-04-03T11:28:01;4.78;;;1.50;;
72924;SDS011;61070;50.794;7.054;2023-04-03T11:36:18;5.82;;;1.15;;
72924;SDS011;61070;50.794;7.054;2023-04-03T11:38:47;4.55;;;1.33;;
72924;SDS011;61070;50.794;7.054;2023-04-03T11:41:17;5.72;;;1.08;;
72924;SDS011;61070;50.794;7.054;2023-04-03T11:43:55;9.90;;;1.10;;
72924;SDS011;61070;50.794;7.054;2023-04-03T11:46:48;3.65;;;1.10;;
72924;SDS011;61070;50.794;7.054;2023-04-03T12:08:29;3.17;;;1.08;;
72924;SDS011;61070;50.794;7.054;2023-04-03T12:21:15;6.25;;;1.10;;
72924;SDS011;61070;50.794;7.054;2023-04-03T12:29:43;6.25;;;1.20;;
72924;SDS011;61070;50.794;7.054;2023-04-03T12:35:15;3.00;;;0.93;;
72924;SDS011;61070;50.794;7.054;2023-04-03T12:41:21;5.07;;;1.10;;
72924;SDS011;61070;50.794;7.054;2023-04-03T12:44:13;1.70;;;0.93;;
72924;SDS011;61070;50.794;7.054;2023-04-03T12:46:49;1.90;;;0.98;;
72924;SDS011;61070;50.794;7.054;2023-04-03T12:52:06;2.15;;;0.60;;
72924;SDS011;61070;50.794;7.054;2023-04-03T12:54:45;1.65;;;0.90;;
72924;SDS011;61070;50.794;7.054;2023-04-03T12:57:23;4.28;;;0.90;;
72924;SDS011;61070;50.794;7.054;2023-04-03T12:59:51;2.17;;;0.77;;
72924;SDS011;61070;50.794;7.054;2023-04-03T13:04:51;2.97;;;0.88;;
72924;SDS011;61070;50.794;7.054;2023-04-03T13:07:28;5.55;;;1.02;;
72924;SDS011;61070;50.794;7.054;2023-04-03T13:09:59;5.60;;;1.35;;
72924;SDS011;61070;50.794;7.054;2023-04-03T13:12:26;2.28;;;1.10;;
72924;SDS011;61070;50.794;7.054;2023-04-03T13:14:59;2.15;;;0.80;;
72924;SDS011;61070;50.794;7.054;2023-04-03T13:17:26;4.07;;;1.50;;
72924;SDS011;61070;50.794;7.054;2023-04-03T13:19:53;1.77;;;1.15;;
72924;SDS011;61070;50.794;7.054;2023-04-03T13:24:55;6.53;;;1.25;;
72924;SDS011;61070;50.794;7.054;2023-04-03T13:27:24;3.63;;;0.90;;
72924;SDS011;61070;50.794;7.054;2023-04-03T13:29:51;5.13;;;1.20;;
72924;SDS011;61070;50.794;7.054;2023-04-03T13:32:22;2.63;;;1.25;;
72924;SDS011;61070;50.794;7.054;2023-04-03T13:34:51;3.17;;;1.27;;
72924;SDS011;61070;50.794;7.054;2023-04-03T13:42:34;3.63;;;1.42;;
72924;SDS011;61070;50.794;7.054;2023-04-03T13:47:49;4.07;;;1.00;;
72924;SDS011;61070;50.794;7.054;2023-04-03T13:50:18;5.28;;;1.27;;
72924;SDS011;61070;50.794;7.054;2023-04-03T13:52:49;5.67;;;1.43;;
72924;SDS011;61070;50.794;7.054;2023-04-03T14:03:19;4.97;;;1.00;;
72924;SDS011;61070;50.794;7.054;2023-04-03T14:05:56;2.50;;;1.10;;
72924;SDS011;61070;50.794;7.054;2023-04-03T14:08:22;5.50;;;1.08;;
72924;SDS011;61070;50.794;7.054;2023-04-03T14:10:48;3.00;;;1.27;;
72924;SDS011;61070;50.794;7.054;2023-04-03T14:13:15;3.35;;;1.25;;
72924;SDS011;61070;50.794;7.054;2023-04-03T14:15:42;3.85;;;1.02;;
72924;SDS011;61070;50.794;7.054;2023-04-03T14:18:11;4.10;;;1.13;;
72924;SDS011;61070;50.794;7.054;2023-04-03T14:20:37;2.05;;;0.90;;
72924;SDS011;61070;50.794;7.054;2023-04-03T14:23:02;3.75;;;1.33;;
72924;SDS011;61070;50.794;7.054;2023-04-03T14:25:28;5.85;;;1.30;;
72924;SDS011;61070;50.794;7.054;2023-04-03T14:27:53;3.22;;;0.90;;
72924;SDS011;61070;50.794;7.054;2023-04-03T14:30:22;2.50;;;0.85;;
72924;SDS011;61070;50.794;7.054;2023-04-03T14:32:53;5.22;;;1.35;;
72924;SDS011;61070;50.794;7.054;2023-04-03T14:35:19;1.75;;;0.65;;
72924;SDS011;61070;50.794;7.054;2023-04-03T14:37:45;1.88;;;0.90;;
72924;SDS011;61070;50.794;7.054;2023-04-03T14:40:15;4.20;;;1.52;;
72924;SDS011;61070;50.794;7.054;2023-04-03T14:42:44;3.78;;;1.40;;
72924;SDS011;61070;50.794;7.054;2023-04-03T14:45:10;7.50;;;1.60;;
72924;SDS011;61070;50.794;7.054;2023-04-03T14:47:39;3.33;;;1.33;;
72924;SDS011;61070;50.794;7.054;2023-04-03T14:50:11;3.72;;;1.00;;
72924;SDS011;61070;50.794;7.054;2023-04-03T14:52:45;1.75;;;0.93;;
72924;SDS011;61070;50.794;7.054;2023-04-03T14:55:12;3.70;;;1.15;;
72924;SDS011;61070;50.794;7.054;2023-04-03T14:57:40;4.78;;;1.20;;
72924;SDS011;61070;50.794;7.054;2023-04-03T15:00:07;2.38;;;1.10;;
72924;SDS011;61070;50.794;7.054;2023-04-03T15:02:37;7.13;;;1.83;;
72924;SDS011;61070;50.794;7.054;2023-04-03T15:05:04;5.35;;;1.40;;
72924;SDS011;61070;50.794;7.054;2023-04-03T15:07:33;5.10;;;1.20;;
72924;SDS011;61070;50.794;7.054;2023-04-03T15:10:02;7.05;;;1.25;;
72924;SDS011;61070;50.794;7.054;2023-04-03T15:12:31;4.78;;;1.15;;
72924;SDS011;61070;50.794;7.054;2023-04-03T15:14:57;4.78;;;1.17;;
72924;SDS011;61070;50.794;7.054;2023-04-03T15:17:22;1.95;;;0.80;;
72924;SDS011;61070;50.794;7.054;2023-04-03T15:19:48;2.83;;;1.10;;
72924;SDS011;61070;50.794;7.054;2023-04-03T15:22:14;3.78;;;1.20;;
72924;SDS011;61070;50.794;7.054;2023-04-03T15:24:41;3.08;;;1.35;;
72924;SDS011;61070;50.794;7.054;2023-04-03T15:27:07;4.97;;;1.30;;
72924;SDS011;61070;50.794;7.054;2023-04-03T15:29:32;6.63;;;1.45;;
72924;SDS011;61070;50.794;7.054;2023-04-03T15:31:58;3.30;;;1.15;;
72924;SDS011;61070;50.794;7.054;2023-04-03T15:34:23;2.08;;;0.80;;
72924;SDS011;61070;50.794;7.054;2023-04-03T15:36:49;2.05;;;1.20;;
72924;SDS011;61070;50.794;7.054;2023-04-03T15:39:17;8.23;;;1.10;;
72924;SDS011;61070;50.794;7.054;2023-04-03T15:41:42;4.70;;;1.20;;
72924;SDS011;61070;50.794;7.054;2023-04-03T15:44:08;4.97;;;0.98;;
72924;SDS011;61070;50.794;7.054;2023-04-03T15:46:33;2.75;;;0.95;;
72924;SDS011;61070;50.794;7.054;2023-04-03T15:48:59;3.72;;;1.00;;
72924;SDS011;61070;50.794;7.054;2023-04-03T15:51:25;6.45;;;1.98;;
72924;SDS011;61070;50.794;7.054;2023-04-03T15:53:51;3.83;;;1.35;;
72924;SDS011;61070;50.794;7.054;2023-04-03T15:56:16;2.75;;;0.95;;
72924;SDS011;61070;50.794;7.054;2023-04-03T15:58:41;3.00;;;1.40;;
72924;SDS011;61070;50.794;7.054;2023-04-03T16:01:08;3.53;;;1.10;;
72924;SDS011;61070;50.794;7.054;2023-04-03T16:03:35;3.63;;;1.17;;
72924;SDS011;61070;50.794;7.054;2023-04-03T16:06:01;2.45;;;0.98;;
72924;SDS011;61070;50.794;7.054;2023-04-03T16:08:26;5.13;;;1.23;;
72924;SDS011;61070;50.794;7.054;2023-04-03T16:10:52;5.25;;;1.30;;
72924;SDS011;61070;50.794;7.054;2023-04-03T16:13:17;4.70;;;1.40;;
72924;SDS011;61070;50.794;7.054;2023-04-03T16:15:43;5.85;;;1.10;;
72924;SDS011;61070;50.794;7.054;2023-04-03T16:18:08;3.30;;;1.15;;
72924;SDS011;61070;50.794;7.054;2023-04-03T16:20:34;2.40;;;0.98;;
72924;SDS011;61070;50.794;7.054;2023-04-03T16:23:00;3.88;;;1.10;;
72924;SDS011;61070;50.794;7.054;2023-04-03T16:25:26;6.32;;;1.00;;
72924;SDS011;61070;50.794;7.054;2023-04-03T16:27:52;2.00;;;0.95;;
72924;SDS011;61070;50.794;7.054;2023-04-03T16:30:17;2.38;;;1.13;;
72924;SDS011;61070;50.794;7.054;2023-04-03T16:32:43;2.67;;;0.95;;
72924;SDS011;61070;50.794;7.054;2023-04-03T16:35:09;1.52;;;0.77;;
72924;SDS011;61070;50.794;7.054;2023-04-03T16:37:35;2.78;;;1.10;;
72924;SDS011;61070;50.794;7.054;2023-04-03T16:40:02;1.73;;;1.05;;
72924;SDS011;61070;50.794;7.054;2023-04-03T16:42:30;2.78;;;1.13;;
72924;SDS011;61070;50.794;7.054;2023-04-03T16:44:55;2.70;;;0.90;;
72924;SDS011;61070;50.794;7.054;2023-04-03T16:47:20;3.28;;;1.00;;
72924;SDS011;61070;50.794;7.054;2023-04-03T16:49:46;2.90;;;1.38;;
72924;SDS011;61070;50.794;7.054;2023-04-03T16:52:12;2.70;;;1.10;;
72924;SDS011;61070;50.794;7.054;2023-04-03T16:54:38;1.98;;;0.93;;
72924;SDS011;61070;50.794;7.054;2023-04-03T16:57:03;2.13;;;0.73;;
72924;SDS011;61070;50.794;7.054;2023-04-03T16:59:30;7.55;;;1.13;;
72924;SDS011;61070;50.794;7.054;2023-04-03T17:01:55;2.90;;;1.10;;